Time;durP1;ratioP1;P1;durP2;ratioP2;P2;SDS_P1;SDS_P2;PMS_P1;PMS_P2;Temp;Humidity;BMP_temperature;BMP_pressure;BME280_temperature;BME280_humidity;BME280_pressure;Samples;Min_cycle;Max_cycle;Signal;HPM_P1;HPM_P2
2024/01/24 00:02:03;;;;;;;10.27;4.78;;;;;;;3.16;73.84;100336.75;5126090;28;20044;-72
2024/01/24 00:04:29;;;;;;;10.75;5.40;;;;;;;3.27;73.73;100358.47;5126556;28;20082;-72
2024/01/24 00:06:56;;;;;;;6.65;3.60;;;;;;;3.14;73.04;100321.06;5126644;28;20097;-71
2024/01/24 00:09:22;;;;;;;5.95;4.50;;;;;;;3.33;73.28;100358.41;5126255;28;20040;-72
2024/01/24 00:11:49;;;;;;;6.63;4.68;;;;;;;3.34;73.73;100354.91;5127092;28;20097;-72
2024/01/24 00:14:16;;;;;;;10.80;5.50;;;;;;;3.30;73.89;100347.09;5126753;28;20057;-71
2024/01/24 00:16:44;;;;;;;10.27;5.70;;;;;;;3.38;73.62;100345.28;5126332;28;20031;-71
2024/01/24 00:19:10;;;;;;;10.43;6.80;;;;;;;3.38;73.50;100338.28;5126709;28;20088;-72
2024/01/24 00:21:38;;;;;;;10.13;5.70;;;;;;;3.39;73.47;100342.63;5125542;28;20307;-71
2024/01/24 00:24:05;;;;;;;9.43;5.65;;;;;;;3.21;73.40;100298.28;5126600;28;20069;-72
2024/01/24 00:26:33;;;;;;;9.80;5.60;;;;;;;3.35;73.63;100314.72;5126869;28;20044;-72
2024/01/24 00:28:59;;;;;;;9.55;5.43;;;;;;;3.38;73.62;100306.84;5126683;28;20266;-72
2024/01/24 00:31:26;;;;;;;6.30;4.80;;;;;;;3.39;73.73;100310.31;5126942;27;20084;-71
2024/01/24 00:33:54;;;;;;;7.35;5.32;;;;;;;3.38;73.59;100301.59;5126180;28;20104;-71
2024/01/24 00:36:21;;;;;;;10.35;5.53;;;;;;;3.41;73.40;100309.41;5126476;28;20076;-71
2024/01/24 00:38:47;;;;;;;8.20;4.90;;;;;;;3.44;72.87;100296.28;5125257;28;20144;-72
2024/01/24 00:41:14;;;;;;;8.18;5.18;;;;;;;3.41;73.03;100288.47;5126388;28;20100;-72
2024/01/24 00:43:42;;;;;;;8.68;4.78;;;;;;;3.44;72.90;100285.81;5126390;28;20051;-71
2024/01/24 00:46:08;;;;;;;6.38;5.00;;;;;;;3.43;72.88;100285.81;5126146;28;20089;-71
2024/01/24 00:48:35;;;;;;;8.32;5.82;;;;;;;3.41;73.16;100277.97;5126355;28;20048;-71
2024/01/24 00:51:04;;;;;;;8.13;4.80;;;;;;;3.40;72.89;100265.75;5126183;28;20047;-71
2024/01/24 00:53:33;;;;;;;7.03;4.97;;;;;;;3.15;72.87;100233.72;5126039;28;20050;-71
2024/01/24 00:56:00;;;;;;;7.18;5.93;;;;;;;3.41;72.82;100277.09;5127981;28;20208;-71
2024/01/24 00:58:27;;;;;;;7.38;5.13;;;;;;;3.41;72.67;100270.13;5130498;28;20047;-71
2024/01/24 01:00:53;;;;;;;8.07;5.18;;;;;;;3.41;72.73;100272.72;5130247;28;20040;-71
2024/01/24 01:03:20;;;;;;;8.55;4.28;;;;;;;3.41;72.64;100264.88;5130400;28;20044;-70
2024/01/24 01:05:47;;;;;;;9.63;5.10;;;;;;;3.39;72.77;100260.53;5130156;28;20051;-71
2024/01/24 01:08:15;;;;;;;7.57;5.43;;;;;;;3.38;72.71;100264.03;5130069;28;20300;-71
2024/01/24 01:10:41;;;;;;;8.60;4.53;;;;;;;3.40;72.43;100257.91;5130293;28;20072;-71
2024/01/24 01:13:08;;;;;;;7.82;5.20;;;;;;;3.38;72.69;100258.81;5130269;28;20051;-71
2024/01/24 01:15:35;;;;;;;8.27;5.20;;;;;;;3.35;72.83;100248.34;5130178;28;20043;-71
2024/01/24 01:18:01;;;;;;;11.82;6.03;;;;;;;3.35;72.89;100236.13;5130146;28;20040;-71
2024/01/24 01:20:28;;;;;;;6.70;4.28;;;;;;;3.37;72.96;100241.34;5130093;28;20112;-71
2024/01/24 01:22:54;;;;;;;9.43;5.03;;;;;;;3.38;72.95;100229.97;5129754;28;20043;-71
2024/01/24 01:25:22;;;;;;;6.45;4.35;;;;;;;3.35;73.01;100228.25;5129967;28;20044;-71
2024/01/24 01:27:49;;;;;;;7.35;5.00;;;;;;;3.35;73.23;100220.41;5129983;28;20058;-71
2024/01/24 01:30:16;;;;;;;8.02;5.13;;;;;;;3.34;73.33;100208.19;5130199;28;20088;-71
2024/01/24 01:32:43;;;;;;;9.55;5.20;;;;;;;3.34;73.35;100207.31;5129955;28;20044;-71
2024/01/24 01:35:09;;;;;;;8.75;4.57;;;;;;;3.33;73.42;100208.19;5129579;28;20106;-71
2024/01/24 01:37:38;;;;;;;8.75;5.50;;;;;;;3.33;73.45;100213.44;5129717;28;20039;-71
2024/01/24 01:40:06;;;;;;;9.00;5.13;;;;;;;3.32;73.61;100196.00;5129469;28;20341;-71
2024/01/24 01:42:34;;;;;;;7.25;5.03;;;;;;;3.32;73.35;100215.19;5130008;28;20051;-71
2024/01/24 01:45:01;;;;;;;7.95;4.50;;;;;;;3.37;73.00;100205.53;5129661;28;20039;-71
2024/01/24 01:47:28;;;;;;;8.90;4.63;;;;;;;3.37;73.24;100208.16;5129387;28;20031;-72
2024/01/24 01:49:54;;;;;;;6.72;4.50;;;;;;;3.34;73.38;100213.41;5129849;28;20045;-71
2024/01/24 01:52:22;;;;;;;4.90;4.03;;;;;;;3.38;73.19;100217.75;5129215;28;20077;-71
2024/01/24 01:54:50;;;;;;;6.93;4.70;;;;;;;3.41;73.14;100196.75;5129432;28;20043;-71
2024/01/24 01:57:17;;;;;;;6.57;4.20;;;;;;;3.23;73.07;100162.03;5129372;28;20051;-71
2024/01/24 01:59:46;;;;;;;6.45;4.45;;;;;;;3.43;72.98;100187.09;5129826;28;20048;-71
2024/01/24 02:02:13;;;;;;;4.28;3.15;;;;;;;3.44;72.86;100174.88;5129292;28;20191;-70
2024/01/24 02:04:40;;;;;;;4.85;3.72;;;;;;;3.47;72.78;100164.34;5129280;28;20047;-71
2024/01/24 02:07:06;;;;;;;5.63;4.00;;;;;;;3.33;72.71;100133.09;5127612;28;20097;-71
2024/01/24 02:09:34;;;;;;;7.18;3.58;;;;;;;3.46;73.11;100153.00;5128887;28;20326;-71
2024/01/24 02:12:00;;;;;;;8.23;4.10;;;;;;;3.48;73.14;100139.88;5129136;28;20188;-71
2024/01/24 02:14:27;;;;;;;7.35;3.47;;;;;;;3.52;72.85;100139.81;5129054;28;20085;-71
2024/01/24 02:16:55;;;;;;;7.90;4.15;;;;;;;3.53;73.06;100128.44;5128678;28;20049;-72
2024/01/24 02:19:22;;;;;;;4.45;3.05;;;;;;;3.53;73.15;100122.31;5128855;28;20073;-72
2024/01/24 02:21:49;;;;;;;6.05;3.97;;;;;;;3.59;73.26;100117.00;5128818;28;20039;-71
2024/01/24 02:24:16;;;;;;;6.38;3.15;;;;;;;3.61;73.57;100109.97;5128894;28;20039;-71
2024/01/24 02:26:43;;;;;;;8.45;3.45;;;;;;;3.64;73.70;100101.19;5128941;28;20054;-72
2024/01/24 02:29:11;;;;;;;4.90;3.53;;;;;;;3.65;73.42;100097.69;5127690;28;20036;-71
2024/01/24 02:31:38;;;;;;;7.72;4.20;;;;;;;3.63;73.21;100091.59;5128731;28;20044;-71
2024/01/24 02:34:04;;;;;;;7.03;3.60;;;;;;;3.68;72.88;100088.03;5128960;28;20334;-71
2024/01/24 02:36:31;;;;;;;8.88;4.18;;;;;;;3.67;73.20;100085.41;5129176;28;20234;-71
2024/01/24 02:38:58;;;;;;;5.72;3.92;;;;;;;3.67;73.43;100080.19;5128612;28;20234;-72
2024/01/24 02:41:26;;;;;;;7.82;3.80;;;;;;;3.71;72.85;100079.25;5128256;28;20052;-71
2024/01/24 02:43:52;;;;;;;6.25;4.15;;;;;;;3.72;73.25;100071.34;5128193;28;20035;-72
2024/01/24 02:46:19;;;;;;;6.63;3.85;;;;;;;3.73;73.22;100066.97;5128491;28;20040;-71
2024/01/24 02:48:46;;;;;;;9.93;4.15;;;;;;;3.76;72.84;100053.81;5128138;28;20051;-72
2024/01/24 02:51:12;;;;;;;6.80;4.38;;;;;;;3.78;73.03;100058.13;5128106;28;20065;-72
2024/01/24 02:53:39;;;;;;;5.28;3.58;;;;;;;3.80;72.90;100039.75;5126936;28;20047;-72
2024/01/24 02:56:07;;;;;;;7.85;4.20;;;;;;;2.62;73.83;99849.56;5127983;28;20051;-72
2024/01/24 02:58:35;;;;;;;5.95;4.43;;;;;;;3.68;74.54;100050.44;5127035;28;20248;-72
2024/01/24 03:01:01;;;;;;;7.85;4.78;;;;;;;3.65;74.56;100026.91;5128416;28;20061;-72
2024/01/24 03:03:28;;;;;;;7.38;3.90;;;;;;;3.65;74.36;100033.03;5128117;28;20300;-72
2024/01/24 03:05:55;;;;;;;7.78;4.63;;;;;;;3.70;74.40;100023.31;5127575;28;20047;-72
2024/01/24 03:08:21;;;;;;;7.63;3.97;;;;;;;3.64;74.88;100018.19;5128009;28;20276;-72
2024/01/24 03:10:48;;;;;;;6.57;3.83;;;;;;;3.66;74.60;100010.28;5126860;28;20246;-72
2024/01/24 03:13:15;;;;;;;5.70;3.63;;;;;;;3.69;74.76;99998.00;5128513;28;20170;-71
2024/01/24 03:15:43;;;;;;;6.53;4.05;;;;;;;3.67;74.80;99993.66;5128156;28;20153;-71
2024/01/24 03:18:09;;;;;;;7.15;4.03;;;;;;;3.67;75.42;99983.19;5126745;28;20044;-71
2024/01/24 03:20:37;;;;;;;11.95;4.03;;;;;;;3.68;75.17;99985.78;5127795;28;20043;-72
2024/01/24 03:23:04;;;;;;;5.28;3.60;;;;;;;3.64;75.35;99981.47;5127765;28;20054;-72
2024/01/24 03:25:31;;;;;;;6.03;3.78;;;;;;;3.63;75.45;99968.41;5127402;28;20364;-72
2024/01/24 03:27:57;;;;;;;6.47;3.88;;;;;;;3.42;75.70;99925.09;5127666;28;20061;-72
2024/01/24 03:30:24;;;;;;;6.78;4.40;;;;;;;3.56;75.95;99953.66;5127335;28;20039;-72
2024/01/24 03:32:52;;;;;;;6.22;4.03;;;;;;;3.45;76.87;99941.63;5127502;28;20212;-72
2024/01/24 03:35:19;;;;;;;5.57;4.10;;;;;;;3.49;76.11;99932.81;5127216;28;20043;-72
2024/01/24 03:37:45;;;;;;;7.30;3.90;;;;;;;3.50;75.82;99917.94;5127349;28;20047;-72
2024/01/24 03:40:12;;;;;;;7.70;4.10;;;;;;;3.51;75.45;99922.31;5127413;28;20047;-71
2024/01/24 03:42:39;;;;;;;5.28;3.65;;;;;;;3.47;74.92;99913.63;5127418;28;20043;-72
2024/01/24 03:45:06;;;;;;;6.70;4.15;;;;;;;3.43;74.48;99908.47;5126708;28;20047;-71
2024/01/24 03:47:33;;;;;;;4.95;4.25;;;;;;;3.39;74.48;99906.78;5127294;28;20108;-72
2024/01/24 03:50:01;;;;;;;5.60;3.42;;;;;;;3.41;74.27;99913.75;5127185;28;20050;-72
2024/01/24 03:52:27;;;;;;;6.60;3.85;;;;;;;3.40;74.56;99890.19;5127191;28;20039;-72
2024/01/24 03:54:54;;;;;;;7.10;3.65;;;;;;;3.34;74.78;99883.28;5127111;28;20070;-72
2024/01/24 03:57:21;;;;;;;8.27;3.78;;;;;;;3.35;74.73;99887.63;5126781;28;20047;-72
2024/01/24 03:59:47;;;;;;;6.95;3.97;;;;;;;3.37;74.81;99888.47;5127298;28;20100;-72
2024/01/24 04:02:14;;;;;;;5.70;3.75;;;;;;;3.19;74.83;99849.50;5126935;28;20295;-72
2024/01/24 04:04:41;;;;;;;8.38;4.30;;;;;;;3.36;74.99;99893.75;5126944;28;20044;-72
2024/01/24 04:07:09;;;;;;;5.82;3.67;;;;;;;3.34;75.56;99892.91;5125709;28;20059;-72
2024/01/24 04:09:35;;;;;;;4.75;3.80;;;;;;;3.38;75.39;99895.44;5126547;28;20101;-71
2024/01/24 04:12:02;;;;;;;9.23;4.50;;;;;;;3.43;74.95;99904.09;5126819;28;20084;-72
2024/01/24 04:14:28;;;;;;;6.40;4.45;;;;;;;3.45;74.98;99917.16;5126452;28;20050;-72
2024/01/24 04:16:55;;;;;;;10.57;5.30;;;;;;;3.44;75.54;99907.56;5126489;28;20354;-72
2024/01/24 04:19:22;;;;;;;8.90;5.22;;;;;;;3.45;75.36;99918.03;5126630;28;20039;-72
2024/01/24 04:21:48;;;;;;;8.60;3.70;;;;;;;3.44;75.54;99913.69;5126923;28;20044;-72
2024/01/24 04:24:16;;;;;;;7.00;4.32;;;;;;;3.43;76.33;99916.31;5126581;28;20051;-72
2024/01/24 04:26:43;;;;;;;6.85;4.13;;;;;;;3.44;75.76;99904.97;5126356;28;20255;-72
2024/01/24 04:29:10;;;;;;;5.97;4.13;;;;;;;3.43;76.21;99895.38;5126272;28;20039;-72
2024/01/24 04:31:36;;;;;;;5.75;3.90;;;;;;;3.40;76.61;99884.94;5126542;28;20082;-72
2024/01/24 04:34:03;;;;;;;6.75;4.35;;;;;;;3.34;77.37;99887.66;5126761;28;20043;-71
2024/01/24 04:36:30;;;;;;;8.80;4.60;;;;;;;3.29;77.78;99887.75;5126129;28;20048;-72
2024/01/24 04:38:56;;;;;;;7.63;4.55;;;;;;;3.31;77.57;99883.34;5126042;28;20043;-72
2024/01/24 04:41:24;;;;;;;7.22;3.95;;;;;;;3.34;77.29;99875.44;5126662;28;20040;-72
2024/01/24 04:43:51;;;;;;;6.95;4.30;;;;;;;3.29;78.34;99869.41;5126026;28;20356;-72
2024/01/24 04:46:19;;;;;;;7.40;4.53;;;;;;;3.27;79.17;99870.31;5126247;28;20051;-72
2024/01/24 04:48:46;;;;;;;8.65;3.90;;;;;;;3.28;79.03;99880.78;5127003;28;20188;-72
2024/01/24 04:51:13;;;;;;;8.10;3.60;;;;;;;1.91;78.99;99631.84;5126325;28;20078;-72
2024/01/24 04:53:40;;;;;;;5.22;3.28;;;;;;;3.33;79.14;99863.22;5126297;28;20051;-72
2024/01/24 04:56:07;;;;;;;5.90;3.90;;;;;;;2.94;79.51;99777.50;5126263;28;20044;-72
2024/01/24 04:58:35;;;;;;;10.45;4.78;;;;;;;3.13;80.34;99810.31;5126125;28;20043;-71
2024/01/24 05:01:01;;;;;;;5.40;3.95;;;;;;;3.31;80.21;99843.19;5126509;28;20104;-72
2024/01/24 05:03:28;;;;;;;5.80;2.97;;;;;;;2.83;79.66;99767.22;5125566;28;20047;-72
2024/01/24 05:05:55;;;;;;;6.10;3.40;;;;;;;3.36;80.40;99823.88;5125913;28;20169;-72
2024/01/24 05:08:22;;;;;;;7.88;3.72;;;;;;;3.29;81.09;99814.41;5125806;28;20104;-72
2024/01/24 05:10:48;;;;;;;6.70;3.60;;;;;;;3.39;80.15;99820.31;5126051;28;20088;-72
2024/01/24 05:13:15;;;;;;;9.77;4.68;;;;;;;3.38;80.42;99808.97;5125791;28;20077;-72
2024/01/24 05:15:43;;;;;;;5.57;3.20;;;;;;;3.38;80.33;99798.50;5126097;28;20051;-71
2024/01/24 05:18:10;;;;;;;6.68;3.45;;;;;;;3.36;80.12;99802.91;5125669;28;20108;-72
2024/01/24 05:20:37;;;;;;;5.70;3.15;;;;;;;3.43;80.23;99794.03;5126332;28;20043;-71
2024/01/24 05:23:04;;;;;;;5.25;3.15;;;;;;;3.38;80.48;99795.03;5125732;28;20337;-72
2024/01/24 05:25:31;;;;;;;5.18;3.03;;;;;;;3.42;79.79;99792.31;5125904;28;20073;-71
2024/01/24 05:27:58;;;;;;;5.78;3.10;;;;;;;3.40;80.21;99775.75;5125980;28;20085;-72
2024/01/24 05:30:25;;;;;;;5.65;3.00;;;;;;;3.40;79.91;99769.66;5126220;28;20048;-71
2024/01/24 05:32:56;;;;;;;5.63;3.17;;;;;;;3.42;80.34;99758.25;5125660;28;20375;-72
2024/01/24 05:35:23;;;;;;;4.88;3.08;;;;;;;3.43;80.24;99757.34;5124788;28;20043;-72
2024/01/24 05:37:50;;;;;;;6.45;3.08;;;;;;;3.41;80.26;99760.91;5126099;28;20051;-71
2024/01/24 05:40:17;;;;;;;6.60;2.90;;;;;;;3.43;79.86;99753.88;5125445;28;20036;-71
2024/01/24 05:42:44;;;;;;;7.03;3.80;;;;;;;3.39;80.06;99757.44;5128495;28;20069;-72
2024/01/24 05:45:11;;;;;;;5.30;3.28;;;;;;;3.45;79.82;99767.81;5129416;28;20058;-71
2024/01/24 05:47:38;;;;;;;6.13;3.25;;;;;;;3.50;79.49;99764.19;5129711;28;20195;-72
2024/01/24 05:50:12;;;;;;;4.97;2.97;;;;;;;3.49;79.91;99754.59;5129814;28;20283;-71
2024/01/24 05:52:39;;;;;;;5.00;3.05;;;;;;;3.45;80.20;99745.09;5129634;28;20078;-72
2024/01/24 05:55:06;;;;;;;10.23;3.85;;;;;;;3.49;79.94;99732.78;5129132;28;20069;-71
2024/01/24 05:57:33;;;;;;;5.93;3.20;;;;;;;3.09;79.97;99668.09;5128251;28;20089;-71
2024/01/24 05:59:59;;;;;;;6.55;3.30;;;;;;;3.47;80.32;99732.81;5129089;28;20047;-72
2024/01/24 06:02:26;;;;;;;5.80;2.92;;;;;;;3.46;80.52;99752.06;5129391;28;20039;-71
2024/01/24 06:04:53;;;;;;;7.55;2.80;;;;;;;3.49;80.39;99732.78;5129380;28;20039;-72
2024/01/24 06:07:20;;;;;;;6.63;3.03;;;;;;;3.46;80.58;99720.59;5128160;28;20122;-71
2024/01/24 06:09:48;;;;;;;8.43;3.75;;;;;;;3.46;80.79;99715.38;5128939;28;20218;-72
2024/01/24 06:12:14;;;;;;;6.47;3.00;;;;;;;3.54;80.43;99707.34;5128821;28;20035;-72
2024/01/24 06:14:41;;;;;;;7.28;3.30;;;;;;;3.51;80.63;99707.41;5129113;28;20043;-71
2024/01/24 06:17:08;;;;;;;5.95;3.30;;;;;;;3.50;80.70;99689.97;5127911;28;20048;-72
2024/01/24 06:19:34;;;;;;;8.75;3.60;;;;;;;3.31;80.72;99658.03;5128513;28;20242;-72
2024/01/24 06:22:01;;;;;;;6.93;3.25;;;;;;;3.49;80.73;99696.97;5128682;28;20044;-71
2024/01/24 06:24:29;;;;;;;4.65;3.17;;;;;;;3.52;80.65;99690.78;5128934;28;20051;-71
2024/01/24 06:26:56;;;;;;;6.43;3.20;;;;;;;3.58;80.50;99695.91;5128829;28;20043;-72
2024/01/24 06:29:22;;;;;;;6.20;3.50;;;;;;;3.52;80.88;99690.78;5128736;28;20100;-71
2024/01/24 06:31:50;;;;;;;6.80;3.45;;;;;;;3.56;80.83;99681.97;5128468;28;20096;-71
2024/01/24 06:34:16;;;;;;;7.03;3.65;;;;;;;3.59;80.50;99679.28;5128797;28;20047;-72
2024/01/24 06:36:43;;;;;;;5.68;3.10;;;;;;;3.56;80.76;99668.00;5128767;28;20280;-72
2024/01/24 06:39:10;;;;;;;5.28;3.70;;;;;;;3.59;80.49;99667.94;5128373;28;20058;-72
2024/01/24 06:41:38;;;;;;;5.13;3.20;;;;;;;3.62;80.19;99673.97;5128042;28;20330;-72
2024/01/24 06:44:05;;;;;;;5.55;3.53;;;;;;;3.58;80.26;99667.06;5127175;28;20035;-72
2024/01/24 06:46:32;;;;;;;6.95;3.97;;;;;;;3.62;80.32;99668.72;5128211;28;20058;-71
2024/01/24 06:48:59;;;;;;;5.28;3.67;;;;;;;3.64;80.04;99672.19;5128259;28;20323;-72
2024/01/24 06:51:26;;;;;;;6.53;3.97;;;;;;;3.67;79.67;99652.91;5128266;28;20108;-72
2024/01/24 06:53:53;;;;;;;6.63;3.80;;;;;;;3.69;79.47;99654.59;5126062;28;20043;-72
2024/01/24 06:56:22;;;;;;;6.72;4.00;;;;;;;3.49;79.59;99623.59;5128145;28;20043;-72
2024/01/24 06:58:50;;;;;;;5.65;4.20;;;;;;;3.68;79.44;99645.00;5126816;28;20103;-72
2024/01/24 07:01:16;;;;;;;6.85;3.75;;;;;;;3.40;79.40;99592.34;5128051;28;20043;-71
2024/01/24 07:03:43;;;;;;;5.40;3.53;;;;;;;3.63;79.50;99640.75;5127233;28;20043;-72
2024/01/24 07:06:10;;;;;;;5.70;3.70;;;;;;;3.69;79.64;99641.47;5127670;28;20048;-72
2024/01/24 07:08:39;;;;;;;11.63;5.03;;;;;;;3.64;80.18;99635.47;5127912;28;20039;-72
2024/01/24 07:11:05;;;;;;;8.40;5.22;;;;;;;3.64;79.97;99626.75;5127672;28;20054;-71
2024/01/24 07:13:32;;;;;;;6.53;4.70;;;;;;;3.69;79.94;99624.91;5127849;28;20039;-72
2024/01/24 07:16:03;;;;;;;4.85;3.60;;;;;;;3.73;79.34;99618.69;5127924;28;20043;-71
2024/01/24 07:18:32;;;;;;;5.43;3.60;;;;;;;3.29;79.59;99565.53;5127374;28;20338;-71
2024/01/24 07:20:59;;;;;;;5.28;3.60;;;;;;;3.74;79.50;99623.03;5127774;28;20047;-71
2024/01/24 07:23:26;;;;;;;7.55;3.40;;;;;;;3.72;79.59;99604.72;5127312;28;20304;-72
2024/01/24 07:25:53;;;;;;;4.55;3.70;;;;;;;3.75;79.58;99606.41;5127569;28;20040;-72
2024/01/24 07:28:19;;;;;;;6.70;3.42;;;;;;;1.35;79.21;99176.53;5127618;28;20047;-71
2024/01/24 07:30:46;;;;;;;4.65;3.20;;;;;;;3.77;79.72;99594.13;5127561;28;20051;-71
2024/01/24 07:33:14;;;;;;;4.57;3.35;;;;;;;3.85;79.46;99606.16;5127558;28;20040;-71
2024/01/24 07:35:41;;;;;;;4.50;3.10;;;;;;;3.89;79.35;99590.34;5127155;28;20043;-71
2024/01/24 07:38:08;;;;;;;5.65;3.22;;;;;;;3.75;79.29;99572.31;5127474;28;20039;-71
2024/01/24 07:40:34;;;;;;;4.82;3.38;;;;;;;3.75;79.28;99551.34;5127338;28;20096;-72
2024/01/24 07:43:01;;;;;;;4.63;3.30;;;;;;;4.01;79.64;99593.53;5127244;28;20084;-71
2024/01/24 07:45:28;;;;;;;6.10;3.90;;;;;;;4.07;79.44;99564.53;5126879;28;20044;-72
2024/01/24 07:47:55;;;;;;;5.25;3.40;;;;;;;3.92;79.21;99522.09;5127237;28;20039;-72
2024/01/24 07:50:23;;;;;;;5.28;4.05;;;;;;;4.14;79.52;99563.47;5126292;28;20040;-72
2024/01/24 07:52:50;;;;;;;6.63;3.90;;;;;;;4.21;80.17;99564.19;5127152;28;20191;-72
2024/01/24 07:55:16;;;;;;;5.60;3.97;;;;;;;4.37;80.79;99551.53;5127080;28;20161;-72
2024/01/24 07:57:43;;;;;;;6.07;4.18;;;;;;;4.49;80.46;99536.31;5126731;28;20051;-71
2024/01/24 08:00:16;;;;;;;6.78;5.50;;;;;;;4.50;80.29;99526.69;5126940;28;20043;-71
2024/01/24 08:02:43;;;;;;;7.40;5.25;;;;;;;4.59;80.87;99522.94;5127296;28;20105;-71
2024/01/24 08:05:12;;;;;;;6.18;5.07;;;;;;;4.67;81.56;99520.94;5126617;28;20051;-71
2024/01/24 08:07:41;;;;;;;7.68;4.78;;;;;;;4.70;81.21;99524.34;5126460;28;20260;-72
2024/01/24 08:10:10;;;;;;;5.82;4.72;;;;;;;4.76;80.29;99529.44;5125909;28;20032;-72
2024/01/24 08:12:37;;;;;;;8.70;5.35;;;;;;;4.78;80.44;99519.75;5126813;28;20039;-71
2024/01/24 08:15:05;;;;;;;6.38;4.40;;;;;;;4.81;80.59;99526.66;5126448;28;20097;-72
2024/01/24 08:17:32;;;;;;;9.30;5.50;;;;;;;4.89;81.20;99529.97;5125375;28;20346;-71
2024/01/24 08:19:59;;;;;;;7.28;4.70;;;;;;;4.95;80.96;99531.56;5126533;28;20104;-72
2024/01/24 08:22:28;;;;;;;16.35;4.95;;;;;;;5.06;82.34;99529.47;5126536;28;20054;-72
2024/01/24 08:24:56;;;;;;;4.90;3.17;;;;;;;5.32;82.59;99534.78;5126554;28;20043;-72
2024/01/24 08:27:23;;;;;;;4.30;2.50;;;;;;;5.61;83.84;99522.50;5125356;28;20047;-72
2024/01/24 08:29:50;;;;;;;4.05;2.90;;;;;;;5.82;83.79;99499.88;5125712;28;20051;-72
2024/01/24 08:32:17;;;;;;;5.05;2.65;;;;;;;6.05;83.48;99523.63;5126362;28;20055;-72
2024/01/24 08:34:44;;;;;;;4.07;2.15;;;;;;;6.30;82.92;99508.72;5125587;28;20048;-72
2024/01/24 08:37:12;;;;;;;3.78;2.55;;;;;;;6.43;82.60;99485.44;5126461;28;20067;-72
2024/01/24 08:39:40;;;;;;;3.40;2.25;;;;;;;6.66;82.22;99477.56;5126166;28;20284;-72
2024/01/24 08:42:08;;;;;;;2.50;1.80;;;;;;;6.84;81.58;99483.09;5126249;28;20085;-72
2024/01/24 08:44:35;;;;;;;3.55;2.22;;;;;;;6.99;81.63;99503.59;5126296;28;20097;-72
2024/01/24 08:47:01;;;;;;;3.50;2.65;;;;;;;7.16;81.11;99495.88;5126380;28;20044;-72
2024/01/24 08:49:28;;;;;;;3.08;2.20;;;;;;;7.31;80.55;99475.97;5125128;28;20039;-72
2024/01/24 08:51:57;;;;;;;3.15;2.45;;;;;;;7.32;80.36;99486.47;5126060;28;20043;-72
2024/01/24 08:54:23;;;;;;;2.80;2.17;;;;;;;7.48;79.60;99467.41;5126378;28;20039;-72
2024/01/24 08:56:50;;;;;;;3.15;2.00;;;;;;;7.62;79.76;99465.06;5126270;28;20051;-72
2024/01/24 08:59:18;;;;;;;3.17;2.28;;;;;;;7.70;79.44;99440.09;5125063;28;20091;-71
2024/01/24 09:01:46;;;;;;;4.30;2.17;;;;;;;7.84;79.44;99447.41;5125079;28;20046;-72
2024/01/24 09:04:14;;;;;;;3.33;2.00;;;;;;;7.95;79.01;99455.72;5126358;28;20055;-72
2024/01/24 09:06:42;;;;;;;3.75;2.20;;;;;;;8.01;78.79;99466.03;5125808;28;20047;-72
2024/01/24 09:09:10;;;;;;;3.30;1.83;;;;;;;8.06;78.69;99442.06;5125093;28;20062;-72
2024/01/24 09:11:37;;;;;;;3.85;2.00;;;;;;;8.14;78.25;99439.97;5125782;28;20111;-72
2024/01/24 09:14:03;;;;;;;3.50;2.30;;;;;;;8.23;78.18;99436.06;5126350;28;20043;-72
2024/01/24 09:16:31;;;;;;;3.13;2.00;;;;;;;8.06;77.53;99389.28;5126784;28;20093;-72
2024/01/24 09:18:58;;;;;;;2.83;2.00;;;;;;;8.44;77.64;99410.47;5130033;28;20093;-72
2024/01/24 09:21:25;;;;;;;2.55;1.80;;;;;;;8.53;77.15;99408.25;5129880;28;20058;-72
2024/01/24 09:23:52;;;;;;;3.63;2.10;;;;;;;8.76;76.70;99409.84;5129991;28;20051;-72
2024/01/24 09:26:19;;;;;;;3.80;1.90;;;;;;;8.74;76.51;99379.97;5129751;28;20051;-72
2024/01/24 09:28:46;;;;;;;2.67;1.85;;;;;;;8.93;76.05;99375.53;5129981;28;20044;-72
2024/01/24 09:31:12;;;;;;;4.18;2.20;;;;;;;9.10;75.78;99410.88;5129925;28;20104;-72
2024/01/24 09:33:40;;;;;;;4.15;2.10;;;;;;;9.08;75.52;99412.75;5129698;28;20043;-72
2024/01/24 09:36:07;;;;;;;2.47;1.80;;;;;;;9.00;75.33;99389.31;5129851;28;20097;-72
2024/01/24 09:38:34;;;;;;;4.50;2.40;;;;;;;9.15;74.92;99422.94;5129309;28;20208;-72
2024/01/24 09:41:05;;;;;;;3.00;1.90;;;;;;;9.19;74.60;99421.88;5129521;28;20036;-73
2024/01/24 09:43:37;;;;;;;4.03;2.20;;;;;;;9.12;74.60;99379.94;5129411;28;20044;-72
2024/01/24 09:46:10;;;;;;;4.35;2.22;;;;;;;9.28;74.67;99386.22;5129716;28;20044;-72
2024/01/24 09:48:36;;;;;;;3.55;2.08;;;;;;;9.27;73.98;99385.34;5129279;28;20050;-72
2024/01/24 09:51:05;;;;;;;3.15;1.65;;;;;;;8.53;73.54;99248.91;5129541;28;20211;-73
2024/01/24 09:53:35;;;;;;;2.95;1.70;;;;;;;8.85;73.32;99287.84;5129515;28;20080;-72
2024/01/24 09:56:03;;;;;;;5.13;2.30;;;;;;;9.35;73.32;99355.88;5129426;28;20046;-72
2024/01/24 09:58:29;;;;;;;2.95;1.95;;;;;;;9.37;73.13;99335.50;5129402;28;20047;-72
2024/01/24 10:00:58;;;;;;;3.15;1.65;;;;;;;9.43;72.96;99334.38;5129358;27;20284;-71
2024/01/24 10:03:25;;;;;;;2.90;2.17;;;;;;;9.56;72.83;99336.31;5128698;28;20062;-71
2024/01/24 10:05:54;;;;;;;3.45;2.30;;;;;;;9.57;72.67;99308.06;5128840;28;20242;-72
2024/01/24 10:08:22;;;;;;;2.47;1.60;;;;;;;9.67;72.03;99319.03;5128959;28;20051;-72
2024/01/24 10:10:49;;;;;;;2.50;1.90;;;;;;;9.58;71.94;99299.19;5129197;28;20039;-72
2024/01/24 10:13:16;;;;;;;4.10;1.80;;;;;;;9.72;71.64;99288.75;5129082;28;20043;-72
2024/01/24 10:15:42;;;;;;;2.90;1.90;;;;;;;9.63;71.70;99307.75;5129041;28;20051;-72
2024/01/24 10:18:09;;;;;;;2.80;1.70;;;;;;;9.82;71.74;99307.63;5128797;28;20044;-72
2024/01/24 10:20:36;;;;;;;2.55;1.55;;;;;;;9.91;71.49;99297.41;5128825;28;20108;-72
2024/01/24 10:23:02;;;;;;;3.72;1.98;;;;;;;9.97;71.37;99290.09;5128851;28;20071;-72
2024/01/24 10:25:30;;;;;;;4.47;1.85;;;;;;;10.02;71.28;99296.84;5128779;28;20060;-72
2024/01/24 10:27:57;;;;;;;5.13;2.10;;;;;;;10.13;71.24;99285.66;5128373;28;20039;-72
2024/01/24 10:30:25;;;;;;;2.53;1.63;;;;;;;10.14;71.09;99272.34;5128950;28;20051;-72
2024/01/24 10:32:53;;;;;;;2.75;1.80;;;;;;;10.21;70.98;99272.88;5127726;28;20116;-72
2024/01/24 10:35:19;;;;;;;3.42;2.03;;;;;;;6.67;70.83;98641.00;5128239;28;20040;-72
2024/01/24 10:37:47;;;;;;;4.50;1.98;;;;;;;10.39;70.79;99249.78;5128286;27;20085;-72
2024/01/24 10:40:15;;;;;;;2.97;1.83;;;;;;;10.47;70.02;99248.44;5127958;28;20316;-72
2024/01/24 10:42:43;;;;;;;3.90;1.73;;;;;;;10.65;70.04;99250.97;5128468;28;20043;-72
2024/01/24 10:45:11;;;;;;;3.17;1.88;;;;;;;10.72;69.49;99244.38;5128731;28;20242;-72
2024/01/24 10:47:40;;;;;;;3.95;1.70;;;;;;;10.41;68.54;99211.69;5128102;28;20043;-72
2024/01/24 10:50:09;;;;;;;3.65;1.95;;;;;;;10.84;68.57;99225.16;5128439;28;20046;-72
2024/01/24 10:52:38;;;;;;;2.92;1.90;;;;;;;11.03;67.89;99209.88;5128086;28;20093;-71
2024/01/24 10:55:07;;;;;;;2.72;1.85;;;;;;;11.21;67.58;99206.13;5127012;28;20234;-72
2024/01/24 10:57:34;;;;;;;2.50;1.52;;;;;;;11.45;67.29;99221.50;5128672;28;20097;-71
2024/01/24 11:00:05;;;;;;;2.45;1.70;;;;;;;11.37;65.75;99190.13;5127827;28;20260;-72
2024/01/24 11:02:32;;;;;;;2.10;1.33;;;;;;;11.54;65.73;99205.00;5127742;28;20070;-72
2024/01/24 11:05:03;;;;;;;3.33;1.65;;;;;;;11.50;65.22;99183.13;5128518;28;20043;-72
2024/01/24 11:07:37;;;;;;;3.95;1.75;;;;;;;11.85;64.90;99211.94;5128469;28;20055;-71
2024/01/24 11:10:17;;;;;;;2.35;1.60;;;;;;;11.79;64.42;99204.34;5127885;28;20245;-72
2024/01/24 11:12:44;;;;;;;3.95;1.90;;;;;;;11.70;64.53;99234.97;5127782;28;20043;-72
2024/01/24 11:15:13;;;;;;;2.70;1.50;;;;;;;11.04;64.28;99139.97;5127915;28;20078;-72
2024/01/24 11:17:41;;;;;;;3.28;1.60;;;;;;;11.26;63.95;99122.75;5127832;28;20045;-71
2024/01/24 11:20:09;;;;;;;2.40;1.50;;;;;;;11.06;63.76;99079.72;5127560;28;20047;-72
2024/01/24 11:22:36;;;;;;;2.80;1.60;;;;;;;11.82;63.97;99188.22;5127764;27;20352;-71
2024/01/24 11:25:04;;;;;;;3.30;1.60;;;;;;;11.73;64.10;99197.63;5127774;28;20092;-71
2024/01/24 11:27:33;;;;;;;3.90;1.90;;;;;;;11.67;63.99;99163.50;5127575;28;20107;-71
2024/01/24 11:30:05;;;;;;;2.45;1.75;;;;;;;11.87;63.84;99210.88;5127318;28;20046;-72
2024/01/24 11:33:04;;;;;;;2.63;1.60;;;;;;;11.64;63.79;99173.44;5127122;28;20199;-71
2024/01/24 11:35:36;;;;;;;2.40;1.55;;;;;;;8.51;64.04;98604.56;5127008;28;20110;-71
2024/01/24 11:38:06;;;;;;;3.10;1.83;;;;;;;11.91;63.50;99182.34;5127326;28;20047;-71
2024/01/24 11:40:35;;;;;;;2.33;1.60;;;;;;;11.88;63.47;99196.66;5126687;28;20089;-71